Time;durP1;ratioP1;P1;durP2;ratioP2;P2;SDS_P1;SDS_P2;PMS_P1;PMS_P2;Temp;Humidity;BMP_temperature;BMP_pressure;BME280_temperature;BME280_humidity;BME280_pressure;Samples;Min_cycle;Max_cycle;Signal;HPM_P1;HPM_P2
2023/01/10 00:00:56;;;;;;;19.80;5.00;;;;;;;6.92;42.84;100688.95;107789;1256;60484;-63
2023/01/10 00:03:23;;;;;;;14.90;5.20;;;;;;;6.82;41.73;100690.48;107777;1256;73850;-63
2023/01/10 00:05:50;;;;;;;13.30;5.10;;;;;;;6.95;41.43;100691.55;107887;1256;71491;-63
2023/01/10 00:08:16;;;;;;;9.60;3.80;;;;;;;6.98;41.31;100695.17;107795;1256;73731;-64
2023/01/10 00:10:43;;;;;;;11.10;5.00;;;;;;;6.52;42.00;100688.91;107786;1256;59182;-63
2023/01/10 00:13:22;;;;;;;17.80;5.60;;;;;;;6.53;42.11;100693.95;107776;1257;62756;-62
2023/01/10 00:15:50;;;;;;;10.30;3.70;;;;;;;6.48;41.84;100695.59;107768;1257;75055;-63
2023/01/10 00:18:17;;;;;;;12.70;4.70;;;;;;;6.46;41.74;100694.21;107690;1257;70471;-62
2023/01/10 00:20:44;;;;;;;11.90;4.70;;;;;;;6.86;40.91;100697.95;107667;1257;73008;-63
2023/01/10 00:23:11;;;;;;;16.10;5.00;;;;;;;6.99;40.68;100692.52;107707;1257;59465;-64
2023/01/10 00:25:39;;;;;;;16.30;4.90;;;;;;;6.95;40.18;100696.78;107712;1258;61378;-62
2023/01/10 00:28:18;;;;;;;20.40;5.00;;;;;;;6.72;40.43;100698.98;107748;1258;73106;-64
2023/01/10 00:31:05;;;;;;;15.40;4.80;;;;;;;6.81;40.34;100702.88;107750;1257;70924;-63
2023/01/10 00:33:33;;;;;;;18.40;4.90;;;;;;;6.64;40.35;100702.56;107748;1257;73484;-63
2023/01/10 00:36:00;;;;;;;13.00;3.30;;;;;;;6.46;40.72;100699.98;107729;1257;60537;-62
2023/01/10 00:38:27;;;;;;;10.20;4.10;;;;;;;6.41;40.61;100698.27;107698;1257;60063;-62
2023/01/10 00:40:54;;;;;;;13.10;4.20;;;;;;;6.34;40.95;100696.96;107699;1257;73204;-64
2023/01/10 00:46:07;;;;;;;14.60;4.30;;;;;;;6.08;41.33;100697.91;107701;1257;73552;-62
2023/01/10 00:48:34;;;;;;;25.70;4.90;;;;;;;6.06;41.09;100695.33;107737;1257;60316;-64
2023/01/10 00:51:01;;;;;;;11.60;5.00;;;;;;;6.20;40.82;100693.59;107746;1257;61554;-63
2023/01/10 00:53:28;;;;;;;17.50;4.40;;;;;;;6.35;40.66;100687.36;107783;1257;74866;-63
2023/01/10 00:55:54;;;;;;;11.20;4.60;;;;;;;6.15;40.82;100690.36;107727;1257;71015;-63
2023/01/10 00:58:22;;;;;;;12.70;4.30;;;;;;;6.45;40.08;100686.73;107771;1257;73697;-62
2023/01/10 01:00:49;;;;;;;17.50;3.70;;;;;;;6.89;39.59;100690.05;107793;1257;60202;-62
2023/01/10 01:03:17;;;;;;;7.00;4.10;;;;;;;6.67;39.49;100690.30;107830;1257;60567;-63
2023/01/10 01:05:45;;;;;;;18.50;4.20;;;;;;;6.21;40.08;100692.04;107774;1257;72342;-63
2023/01/10 01:08:13;;;;;;;12.90;4.70;;;;;;;6.00;40.56;100692.05;107807;1257;70679;-65
2023/01/10 01:10:42;;;;;;;21.70;4.90;;;;;;;5.51;40.63;100695.39;107808;1257;71800;-62
2023/01/10 01:13:11;;;;;;;12.90;4.30;;;;;;;5.97;40.76;100694.70;107699;1257;60413;-62
2023/01/10 01:15:38;;;;;;;19.40;4.50;;;;;;;5.96;40.56;100695.39;107807;1257;60220;-63
2023/01/10 01:18:05;;;;;;;11.90;4.40;;;;;;;6.05;40.58;100697.60;107741;1258;71993;-63
2023/01/10 01:20:32;;;;;;;14.80;4.10;;;;;;;6.21;40.12;100698.83;107748;1257;70631;-63
2023/01/10 01:22:59;;;;;;;18.30;3.90;;;;;;;6.10;39.71;100695.98;107752;1258;73511;-63
2023/01/10 01:25:26;;;;;;;15.00;5.20;;;;;;;6.12;39.71;100705.39;107741;1257;60605;-63
2023/01/10 01:27:53;;;;;;;16.80;4.40;;;;;;;6.11;39.71;100698.77;107752;1257;60430;-63
2023/01/10 01:30:20;;;;;;;17.10;3.90;;;;;;;6.26;39.87;100692.00;107757;1257;74872;-63
2023/01/10 01:32:47;;;;;;;15.80;3.50;;;;;;;6.26;40.23;100696.01;107688;1257;71636;-63
2023/01/10 01:35:16;;;;;;;15.70;4.40;;;;;;;6.08;40.11;100698.10;107678;1257;73678;-64
2023/01/10 01:37:43;;;;;;;14.40;4.40;;;;;;;5.93;40.15;100696.65;107746;1257;60319;-64
2023/01/10 01:40:15;;;;;;;11.70;4.80;;;;;;;6.11;40.69;100691.95;107727;1257;61492;-62
2023/01/10 01:42:42;;;;;;;16.40;4.60;;;;;;;6.31;40.12;100692.81;107618;1257;75089;-63
2023/01/10 01:45:25;;;;;;;12.10;4.00;;;;;;;6.40;40.27;100685.91;107657;1257;71593;-63
2023/01/10 01:47:52;;;;;;;6.80;3.00;;;;;;;6.57;40.02;100700.21;107722;1257;72997;-63
2023/01/10 01:50:26;;;;;;;15.30;4.20;;;;;;;6.27;39.87;100691.45;107680;1257;60434;-61
2023/01/10 01:52:54;;;;;;;19.90;4.60;;;;;;;6.31;39.84;100694.20;107760;1257;60339;-62
2023/01/10 01:55:21;;;;;;;11.30;3.90;;;;;;;6.28;40.06;100687.96;107759;1257;72255;-62
2023/01/10 01:57:48;;;;;;;18.00;4.30;;;;;;;6.23;40.11;100691.84;107788;1257;71575;-62
2023/01/10 02:00:15;;;;;;;9.80;3.40;;;;;;;6.22;40.09;100691.86;107805;1257;74334;-63
2023/01/10 02:02:45;;;;;;;13.80;4.70;;;;;;;6.04;40.25;100699.34;107680;1257;59151;-62
2023/01/10 02:05:28;;;;;;;17.10;4.80;;;;;;;5.86;40.87;100695.14;107731;1257;60470;-61
2023/01/10 02:07:55;;;;;;;17.40;4.60;;;;;;;6.05;41.15;100691.29;107585;1257;75080;-63
2023/01/10 02:10:27;;;;;;;21.00;5.00;;;;;;;5.98;40.78;100685.42;107741;1257;71053;-62
2023/01/10 02:12:53;;;;;;;18.50;4.80;;;;;;;6.14;40.75;100691.75;107771;1257;73014;-63
2023/01/10 02:15:20;;;;;;;10.50;4.40;;;;;;;6.38;40.30;100689.77;107545;1256;62795;-64
2023/01/10 02:17:48;;;;;;;16.00;3.70;;;;;;;6.65;40.86;100693.13;107660;1256;61242;-63
2023/01/10 02:20:15;;;;;;;20.40;4.50;;;;;;;7.01;40.47;100689.00;107871;1256;73224;-62
2023/01/10 02:23:17;;;;;;;16.70;4.80;;;;;;;6.64;39.89;100689.64;107879;1256;70631;-61
2023/01/10 02:25:55;;;;;;;18.80;4.80;;;;;;;6.89;39.76;100687.59;107859;1256;71941;-63
2023/01/10 02:28:44;;;;;;;20.70;4.10;;;;;;;7.20;39.24;100688.39;107835;1256;61717;-60
2023/01/10 02:31:30;;;;;;;11.20;4.60;;;;;;;7.12;39.32;100686.23;107869;1256;61507;-63
2023/01/10 02:36:15;;;;;;;12.20;4.70;;;;;;;4.70;44.19;100690.13;105581;1285;600368;-61
2023/01/10 02:38:57;;;;;;;14.90;4.90;;;;;;;6.28;41.18;100691.09;107343;1266;61288;-63
2023/01/10 02:41:29;;;;;;;18.60;5.40;;;;;;;6.36;41.23;100692.05;107344;1264;62120;-64
2023/01/10 02:44:01;;;;;;;19.00;4.60;;;;;;;6.53;40.88;100695.01;107257;1266;73627;-60
2023/01/10 02:46:29;;;;;;;13.20;4.60;;;;;;;6.56;40.48;100697.08;107332;1264;72937;-62
2023/01/10 02:48:55;;;;;;;17.60;4.90;;;;;;;6.61;40.45;100698.23;107253;1263;152616;-60
2023/01/10 02:51:23;;;;;;;14.00;4.60;;;;;;;6.50;40.33;100705.69;107467;1264;59430;-62
2023/01/10 02:54:06;;;;;;;28.90;5.90;;;;;;;6.26;40.92;100709.08;107445;1262;62529;-67
2023/01/10 02:57:09;;;;;;;18.40;4.90;;;;;;;6.65;40.73;100703.09;107465;1263;74467;-63
2023/01/10 02:59:58;;;;;;;10.10;4.60;;;;;;;6.98;40.26;100700.23;107437;1263;71373;-61
2023/01/10 03:03:03;;;;;;;12.10;4.80;;;;;;;7.07;40.18;100705.33;107234;1266;74407;-60
2023/01/10 03:05:36;;;;;;;25.50;5.90;;;;;;;6.82;40.40;100712.98;107294;1265;59645;-62
2023/01/10 03:08:19;;;;;;;19.50;5.60;;;;;;;6.86;40.53;100723.23;107297;1264;62554;-62
2023/01/10 03:10:57;;;;;;;21.70;5.40;;;;;;;6.86;40.26;100723.41;107310;1267;75383;-60
2023/01/10 03:13:34;;;;;;;14.70;4.80;;;;;;;6.94;40.68;100730.98;107348;1263;69915;-59
2023/01/10 03:16:01;;;;;;;17.30;5.10;;;;;;;6.92;40.45;100734.34;107383;1263;72838;-65
2023/01/10 03:18:36;;;;;;;20.60;5.30;;;;;;;7.18;40.36;100730.34;107361;1267;59557;-60
2023/01/10 03:21:04;;;;;;;16.30;6.80;;;;;;;7.12;40.23;100733.23;107312;1265;61999;-61
2023/01/10 03:23:31;;;;;;;18.60;5.70;;;;;;;6.39;41.31;100738.42;107307;1264;75264;-61
2023/01/10 03:25:58;;;;;;;20.00;6.10;;;;;;;6.61;41.29;100742.55;107346;1266;70018;-63
2023/01/10 03:28:33;;;;;;;13.90;5.60;;;;;;;6.75;41.11;100747.45;107231;1266;73231;-62
2023/01/10 03:31:09;;;;;;;11.90;5.40;;;;;;;6.75;41.21;100744.15;107275;1264;63499;-62
2023/01/10 03:33:36;;;;;;;21.50;5.20;;;;;;;6.68;41.47;100745.61;107314;1266;61298;-57
2023/01/10 03:36:19;;;;;;;23.00;6.20;;;;;;;6.86;41.36;100751.35;107366;1266;75079;-64
2023/01/10 03:38:51;;;;;;;14.50;4.80;;;;;;;6.98;40.97;100755.04;107344;1264;71555;-63
2023/01/10 03:41:39;;;;;;;17.60;5.10;;;;;;;6.42;41.69;100757.40;107480;1262;71247;-64
2023/01/10 03:44:44;;;;;;;21.80;5.90;;;;;;;6.01;42.07;100756.53;107558;1259;60723;-61
2023/01/10 03:47:45;;;;;;;18.10;6.10;;;;;;;6.16;42.14;100754.14;107481;1259;59693;-60
2023/01/10 03:50:19;;;;;;;;;;;;;;;5.92;42.27;100756.26;107662;1258;74368;-61
2023/01/10 03:52:46;;;;;;;14.00;3.80;;;;;;;5.79;42.86;100767.50;107672;1259;70302;-60
2023/01/10 03:55:14;;;;;;;17.70;5.50;;;;;;;5.57;43.13;100769.73;107691;1260;74988;-60
2023/01/10 03:57:44;;;;;;;20.50;6.30;;;;;;;5.45;43.57;100772.59;107670;1263;62690;-62
2023/01/10 04:00:12;;;;;;;12.90;5.90;;;;;;;5.32;43.91;100767.44;107688;1257;59526;-61
2023/01/10 04:02:39;;;;;;;17.70;6.10;;;;;;;5.44;43.40;100767.55;107627;1259;75388;-61
2023/01/10 04:05:07;;;;;;;12.00;5.50;;;;;;;5.69;43.47;100765.48;107696;1258;70608;-63
2023/01/10 04:07:33;;;;;;;11.70;5.30;;;;;;;5.75;42.87;100768.39;108000;1253;74791;-63
2023/01/10 04:10:00;;;;;;;14.20;5.10;;;;;;;6.18;42.40;100770.02;107959;1256;62935;-63
2023/01/10 04:12:27;;;;;;;18.80;5.90;;;;;;;6.10;42.18;100767.45;107965;1253;61877;-61
2023/01/10 04:14:54;;;;;;;18.00;5.80;;;;;;;5.90;42.52;100769.35;108159;1254;71010;-58
2023/01/10 04:17:20;;;;;;;18.50;6.00;;;;;;;5.96;42.57;100772.96;108139;1254;71761;-61
2023/01/10 04:19:47;;;;;;;20.70;7.00;;;;;;;5.65;43.06;100775.94;108163;1254;72425;-63
2023/01/10 04:22:14;;;;;;;19.20;6.90;;;;;;;5.38;43.20;100779.59;108150;1254;64124;-61
2023/01/10 04:24:43;;;;;;;22.20;7.10;;;;;;;5.23;43.78;100784.90;108166;1254;62431;-60
2023/01/10 04:27:10;;;;;;;18.00;7.80;;;;;;;5.31;43.65;100788.52;108135;1254;74794;-61
2023/01/10 04:29:36;;;;;;;19.50;6.70;;;;;;;5.35;43.31;100789.90;108181;1251;71263;-62
2023/01/10 04:32:04;;;;;;;22.40;7.30;;;;;;;5.62;42.65;100796.52;108238;1252;74403;-64
2023/01/10 04:34:31;;;;;;;16.50;6.50;;;;;;;5.71;42.69;100785.32;108277;1254;62976;-60
2023/01/10 04:36:57;;;;;;;23.00;7.10;;;;;;;5.76;42.33;100796.62;108212;1251;61776;-58
2023/01/10 04:39:24;;;;;;;22.90;7.00;;;;;;;5.60;42.37;100784.86;108243;1251;74973;-61
2023/01/10 04:41:51;;;;;;;20.80;7.20;;;;;;;5.95;42.07;100787.59;108243;1251;72204;-63
2023/01/10 04:44:18;;;;;;;16.40;6.40;;;;;;;6.01;41.86;100796.98;108200;1251;74803;-62
2023/01/10 04:46:45;;;;;;;20.90;7.70;;;;;;;6.00;41.55;100788.63;108248;1254;63141;-60
2023/01/10 04:49:11;;;;;;;17.20;6.80;;;;;;;5.81;41.69;100791.52;108118;1251;61060;-58
2023/01/10 04:51:38;;;;;;;21.20;7.40;;;;;;;5.79;41.54;100799.21;108225;1251;74980;-61
2023/01/10 04:54:05;;;;;;;13.20;6.10;;;;;;;5.96;41.28;100804.69;108267;1251;71982;-64
2023/01/10 04:56:32;;;;;;;24.40;8.70;;;;;;;5.99;41.21;100800.14;108314;1251;74933;-57
2023/01/10 04:58:59;;;;;;;20.60;8.20;;;;;;;5.86;41.53;100814.33;108228;1254;61083;-64
2023/01/10 05:01:25;;;;;;;20.40;8.10;;;;;;;5.59;41.83;100818.50;108268;1251;61135;-61
2023/01/10 05:03:53;;;;;;;15.90;6.40;;;;;;;5.65;41.84;100827.02;108289;1251;74997;-61
2023/01/10 05:06:21;;;;;;;23.90;9.00;;;;;;;5.71;41.76;100831.32;108257;1251;71008;-62
2023/01/10 05:08:47;;;;;;;21.80;7.80;;;;;;;5.65;41.88;100837.27;108288;1251;73178;-59
2023/01/10 05:11:14;;;;;;;22.90;8.60;;;;;;;5.62;41.88;100843.23;108263;1251;61088;-59
2023/01/10 05:13:41;;;;;;;33.00;8.70;;;;;;;5.05;42.30;100854.94;108229;1253;60951;-63
2023/01/10 05:16:08;;;;;;;22.20;7.90;;;;;;;4.97;42.32;100849.91;108034;1253;73621;-62
2023/01/10 05:18:34;;;;;;;23.30;7.70;;;;;;;4.63;42.62;100856.58;108014;1253;70767;-63
2023/01/10 05:21:09;;;;;;;31.00;10.20;;;;;;;4.52;42.73;100859.38;108005;1257;74657;-62
2023/01/10 05:23:38;;;;;;;22.60;7.50;;;;;;;4.35;42.71;100855.20;108019;1253;64053;-63
2023/01/10 05:26:13;;;;;;;21.20;8.50;;;;;;;4.35;42.68;100858.17;108089;1253;61482;-64
2023/01/10 05:28:40;;;;;;;23.10;8.40;;;;;;;4.30;42.71;100864.24;108090;1252;74200;-64
2023/01/10 05:31:08;;;;;;;32.50;9.30;;;;;;;4.33;42.53;100853.64;108066;1253;71006;-61
2023/01/10 05:33:35;;;;;;;20.70;8.60;;;;;;;4.29;42.59;100847.38;108056;1253;75198;-61
2023/01/10 05:36:07;;;;;;;21.70;8.80;;;;;;;3.95;43.21;100854.65;108054;1254;63276;-63
2023/01/10 05:38:34;;;;;;;24.30;8.20;;;;;;;3.58;43.96;100853.17;108094;1253;62603;-64
2023/01/10 05:41:01;;;;;;;20.30;7.70;;;;;;;3.49;43.87;100857.13;108073;1253;74555;-64
2023/01/10 05:43:28;;;;;;;21.30;8.60;;;;;;;3.76;43.15;100856.70;108087;1253;70812;-64
2023/01/10 05:45:55;;;;;;;25.00;9.00;;;;;;;4.03;42.49;100857.45;108063;1253;74820;-64
2023/01/10 05:48:22;;;;;;;30.80;9.10;;;;;;;4.04;42.00;100855.00;108024;1253;63882;-63
2023/01/10 05:50:49;;;;;;;19.20;6.60;;;;;;;3.82;41.94;100863.84;108043;1255;61765;-62
2023/01/10 05:53:17;;;;;;;27.10;9.10;;;;;;;3.61;42.03;100865.52;108121;1253;74872;-64
2023/01/10 05:55:50;;;;;;;26.90;9.40;;;;;;;3.81;42.27;100858.09;108043;1258;71959;-63
2023/01/10 05:58:17;;;;;;;23.90;9.20;;;;;;;3.69;41.79;100867.61;108075;1255;74825;-65
2023/01/10 06:00:44;;;;;;;33.40;11.40;;;;;;;4.00;41.67;100874.12;108042;1254;61937;-64
2023/01/10 06:03:11;;;;;;;23.80;9.60;;;;;;;3.72;41.28;100887.42;108016;1254;62896;-62
2023/01/10 06:05:38;;;;;;;27.60;10.30;;;;;;;3.59;41.06;100886.16;108024;1253;72972;-62
2023/01/10 06:08:05;;;;;;;22.70;9.90;;;;;;;3.42;41.18;100902.95;108101;1253;72549;-66
2023/01/10 06:10:32;;;;;;;23.70;10.30;;;;;;;3.63;40.69;100902.33;108014;1258;72160;-66
2023/01/10 06:12:58;;;;;;;24.70;10.00;;;;;;;3.30;41.17;100905.65;108018;1253;60269;-64
2023/01/10 06:15:26;;;;;;;17.40;8.30;;;;;;;2.77;41.21;100907.92;108009;1257;60448;-62
2023/01/10 06:17:53;;;;;;;34.80;12.30;;;;;;;2.54;41.73;100900.13;108004;1254;74073;-66
2023/01/10 06:20:20;;;;;;;24.30;8.40;;;;;;;2.09;42.42;100904.56;108017;1253;72457;-65
2023/01/10 06:22:47;;;;;;;33.30;9.60;;;;;;;2.18;42.30;100902.73;108037;1254;74591;-64
2023/01/10 06:25:14;;;;;;;26.20;9.60;;;;;;;2.79;41.68;100909.85;107986;1257;62421;-64
2023/01/10 06:27:41;;;;;;;27.30;10.10;;;;;;;2.67;41.30;100917.39;108006;1254;61244;-65
2023/01/10 06:30:09;;;;;;;23.00;9.60;;;;;;;1.93;42.06;100926.04;107998;1254;73015;-65
2023/01/10 06:32:36;;;;;;;17.70;9.10;;;;;;;2.45;42.12;100913.03;108061;1255;71158;-65
2023/01/10 06:35:04;;;;;;;24.70;9.70;;;;;;;2.51;41.67;100915.88;108044;1254;74785;-65
2023/01/10 06:37:31;;;;;;;27.20;10.10;;;;;;;2.48;41.89;100912.55;108061;1258;63835;-64
2023/01/10 06:39:58;;;;;;;26.50;10.50;;;;;;;2.37;42.28;100909.52;108039;1257;62627;-65
2023/01/10 06:42:25;;;;;;;22.30;9.70;;;;;;;2.25;42.33;100916.86;108029;1257;74092;-66
2023/01/10 06:44:52;;;;;;;23.50;9.30;;;;;;;2.65;41.76;100919.62;108066;1253;69056;-65
2023/01/10 06:47:20;;;;;;;18.70;7.70;;;;;;;2.15;42.40;100915.38;108125;1257;74770;-62
2023/01/10 06:49:47;;;;;;;23.90;9.70;;;;;;;1.72;42.02;100927.73;108044;1255;64032;-66
2023/01/10 06:52:13;;;;;;;24.40;9.20;;;;;;;2.24;43.36;100921.51;108078;1254;62842;-64
2023/01/10 06:54:40;;;;;;;28.00;9.80;;;;;;;2.62;41.75;100927.59;108040;1254;76076;-65
2023/01/10 06:57:07;;;;;;;13.40;5.50;;;;;;;2.65;40.99;100929.16;108155;1253;71132;-63
2023/01/10 06:59:34;;;;;;;21.90;8.60;;;;;;;2.18;41.08;100938.45;108112;1254;74990;-65
2023/01/10 07:02:01;;;;;;;23.60;10.20;;;;;;;2.34;40.43;100933.05;108049;1254;64112;-66
2023/01/10 07:04:28;;;;;;;23.20;11.30;;;;;;;2.34;40.57;100936.86;108061;1254;61272;-66
2023/01/10 07:06:55;;;;;;;35.80;10.90;;;;;;;2.10;40.63;100942.85;108048;1254;75204;-65
2023/01/10 07:09:22;;;;;;;35.40;13.20;;;;;;;2.08;40.49;100953.41;108060;1255;71326;-67
2023/01/10 07:11:49;;;;;;;33.20;11.40;;;;;;;2.29;41.09;100953.29;107955;1254;75371;-66
2023/01/10 07:14:16;;;;;;;32.70;11.50;;;;;;;2.36;40.40;100961.83;108057;1259;62926;-66
2023/01/10 07:16:43;;;;;;;34.00;11.60;;;;;;;2.52;39.77;100964.94;108247;1252;60170;-66
2023/01/10 07:19:12;;;;;;;28.40;11.90;;;;;;;2.82;39.27;100961.21;108183;1252;76079;-65
2023/01/10 07:21:39;;;;;;;53.70;14.30;;;;;;;2.50;39.35;100967.34;108160;1251;72038;-66
2023/01/10 07:24:07;;;;;;;45.60;13.10;;;;;;;2.14;39.71;100968.20;108194;1256;74788;-67
2023/01/10 07:26:33;;;;;;;40.20;13.50;;;;;;;1.91;39.85;100977.45;108219;1251;61811;-66
2023/01/10 07:29:00;;;;;;;35.30;10.80;;;;;;;1.95;39.59;100985.48;108290;1251;61753;-66
2023/01/10 07:31:27;;;;;;;31.80;10.70;;;;;;;1.83;39.44;100989.67;108241;1251;73727;-66
2023/01/10 07:33:54;;;;;;;28.30;8.90;;;;;;;2.11;39.01;100978.38;108245;1251;71377;-65
2023/01/10 07:36:21;;;;;;;28.10;10.20;;;;;;;2.45;38.51;100978.73;108138;1254;74520;-65
2023/01/10 07:38:48;;;;;;;46.20;12.60;;;;;;;2.40;38.65;100977.13;108146;1251;63289;-63
2023/01/10 07:41:14;;;;;;;31.70;9.80;;;;;;;2.58;38.40;100973.99;108172;1253;60315;-65
2023/01/10 07:43:41;;;;;;;39.50;12.00;;;;;;;2.04;38.90;100992.52;108208;1251;72659;-64
2023/01/10 07:46:10;;;;;;;35.20;12.10;;;;;;;2.39;38.56;100979.73;108186;1251;72727;-65
2023/01/10 07:48:40;;;;;;;22.70;9.30;;;;;;;2.14;39.02;100978.93;108226;1254;73803;-62
2023/01/10 07:51:08;;;;;;;42.50;11.80;;;;;;;2.15;39.96;100987.60;108172;1251;62918;-63
2023/01/10 07:53:34;;;;;;;46.40;13.60;;;;;;;2.50;38.90;100993.52;108243;1251;60566;-64
2023/01/10 07:56:02;;;;;;;26.50;10.10;;;;;;;2.22;38.36;100983.71;108218;1251;75980;-65
2023/01/10 07:58:28;;;;;;;31.40;10.10;;;;;;;2.34;38.31;100986.08;108311;1257;72433;-64
2023/01/10 08:00:57;;;;;;;26.10;8.60;;;;;;;2.21;38.67;100985.94;108364;1256;74358;-62
2023/01/10 08:03:24;;;;;;;24.20;8.50;;;;;;;2.58;38.39;100981.64;108261;1256;64048;-62
2023/01/10 08:05:58;;;;;;;25.30;9.50;;;;;;;2.98;38.21;100980.94;108362;1256;62063;-64
2023/01/10 08:08:25;;;;;;;24.10;9.60;;;;;;;2.59;37.38;100991.15;108207;1251;75925;-61
2023/01/10 08:10:52;;;;;;;19.10;8.90;;;;;;;2.55;37.67;100987.69;108209;1251;72840;-64
2023/01/10 08:13:19;;;;;;;21.40;8.60;;;;;;;2.48;37.81;100987.08;108178;1257;74818;-63
2023/01/10 08:15:48;;;;;;;24.20;8.40;;;;;;;2.54;37.97;100989.05;108048;1254;62531;-63
2023/01/10 08:18:16;;;;;;;20.90;8.10;;;;;;;3.12;37.74;100986.41;108104;1260;62584;-58
2023/01/10 08:20:42;;;;;;;20.80;7.30;;;;;;;3.28;37.15;100990.34;108131;1256;75928;-63
2023/01/10 08:23:09;;;;;;;14.20;6.40;;;;;;;3.34;37.39;100996.11;108024;1253;70515;-65
2023/01/10 08:25:36;;;;;;;21.00;8.00;;;;;;;3.19;36.76;100990.45;107991;1258;74472;-65
2023/01/10 08:28:05;;;;;;;15.70;6.90;;;;;;;3.50;36.43;100996.91;108013;1256;63206;-63
2023/01/10 08:30:32;;;;;;;22.20;6.90;;;;;;;3.60;36.13;101001.65;108009;1261;62122;-63
2023/01/10 08:33:01;;;;;;;13.30;6.10;;;;;;;3.77;36.65;100995.48;107995;1254;73816;-64
2023/01/10 08:35:28;;;;;;;22.90;7.50;;;;;;;4.04;37.24;101003.59;108076;1254;71358;-64
2023/01/10 08:37:58;;;;;;;24.50;7.40;;;;;;;4.14;37.20;101006.76;108086;1253;74079;-62
2023/01/10 08:40:26;;;;;;;;;;;;;;;4.03;36.34;101000.45;107933;1253;63220;-64
2023/01/10 08:42:59;;;;;;;97.70;22.30;;;;;;;4.21;35.54;100992.34;107945;1254;60365;-64
2023/01/10 08:45:26;;;;;;;35.10;10.40;;;;;;;4.10;35.54;100995.79;108044;1253;75880;-64
2023/01/10 08:47:53;;;;;;;30.50;9.30;;;;;;;4.08;35.53;100992.30;107996;1253;72202;-65
2023/01/10 08:50:20;;;;;;;27.90;9.40;;;;;;;3.90;35.74;100989.45;108021;1254;74817;-63
2023/01/10 08:52:47;;;;;;;29.20;8.60;;;;;;;3.74;35.60;100993.90;108008;1253;62081;-67
2023/01/10 08:55:14;;;;;;;31.00;10.10;;;;;;;3.92;36.04;100990.34;107989;1254;62618;-64
2023/01/10 08:57:41;;;;;;;18.30;7.10;;;;;;;3.81;35.81;100989.08;107999;1255;73603;-65
2023/01/10 09:00:09;;;;;;;26.00;7.60;;;;;;;3.87;35.59;100985.80;108043;1254;72597;-65
2023/01/10 09:02:35;;;;;;;30.00;9.90;;;;;;;3.81;35.38;100977.60;108105;1254;74732;-64
2023/01/10 09:05:02;;;;;;;28.20;9.50;;;;;;;3.67;35.74;100984.14;108058;1254;63011;-66
2023/01/10 09:07:32;;;;;;;23.50;8.20;;;;;;;3.69;35.63;100985.20;108078;1253;61467;-64
2023/01/10 09:09:58;;;;;;;16.50;7.30;;;;;;;3.99;35.81;100978.89;108029;1254;74965;-64
2023/01/10 09:13:11;;;;;;;25.00;7.20;;;;;;;4.20;36.07;100982.61;107998;1254;72394;-64
2023/01/10 09:15:13;;;;;;;16.00;7.20;;;;;;;4.19;35.56;100980.34;108050;1254;74481;-63
2023/01/10 09:17:39;;;;;;;23.00;6.60;;;;;;;4.09;35.51;100969.17;108152;1252;63556;-63
2023/01/10 09:20:08;;;;;;;29.20;9.40;;;;;;;3.82;36.44;100971.02;108155;1253;62681;-64
2023/01/10 09:22:38;;;;;;;23.70;8.70;;;;;;;3.76;35.86;100969.42;108202;1254;75933;-63
2023/01/10 09:25:06;;;;;;;15.80;6.30;;;;;;;4.24;35.85;100961.41;108234;1254;72373;-64
2023/01/10 09:27:34;;;;;;;22.00;8.10;;;;;;;4.46;35.62;100957.11;108209;1254;74454;-64
2023/01/10 09:30:00;;;;;;;19.40;6.20;;;;;;;3.97;35.46;100961.34;108127;1254;63213;-64
2023/01/10 09:32:27;;;;;;;28.80;9.50;;;;;;;4.38;35.07;100968.38;108145;1254;61202;-66
2023/01/10 09:34:54;;;;;;;36.60;7.50;;;;;;;4.74;34.63;100969.98;108188;1254;75901;-62
2023/01/10 09:37:21;;;;;;;28.50;8.70;;;;;;;4.45;34.58;100968.58;108173;1254;72509;-64
2023/01/10 09:39:48;;;;;;;32.40;10.60;;;;;;;4.73;35.27;100964.08;108180;1254;75077;-65
2023/01/10 09:42:34;;;;;;;26.80;7.50;;;;;;;4.73;34.59;100964.43;108158;1254;61963;-63
2023/01/10 09:45:11;;;;;;;41.20;10.60;;;;;;;4.80;34.57;100967.89;108161;1253;62646;-64
2023/01/10 09:47:50;;;;;;;27.60;9.00;;;;;;;4.96;35.07;100966.68;108045;1254;74871;-66
2023/01/10 09:50:22;;;;;;;19.30;7.50;;;;;;;5.15;34.34;100960.38;108118;1254;72258;-65
2023/01/10 09:52:51;;;;;;;20.90;7.70;;;;;;;5.64;34.11;100962.19;108088;1253;72538;-62
2023/01/10 09:55:26;;;;;;;25.30;8.60;;;;;;;5.73;34.46;100968.09;108118;1254;62434;-65
2023/01/10 09:57:54;;;;;;;29.40;7.80;;;;;;;6.03;33.00;100967.46;108214;1253;60324;-65
2023/01/10 10:00:24;;;;;;;20.00;7.40;;;;;;;6.31;32.75;100971.30;108270;1254;73711;-64
2023/01/10 10:02:51;;;;;;;25.60;7.50;;;;;;;7.15;32.27;100972.05;108045;1253;72294;-61
2023/01/10 10:05:19;;;;;;;23.70;8.00;;;;;;;7.69;31.24;100969.73;108045;1254;73547;-66
2023/01/10 10:07:51;;;;;;;25.80;8.50;;;;;;;7.31;30.86;100977.84;108182;1254;61532;-65
2023/01/10 10:10:50;;;;;;;20.30;7.00;;;;;;;7.12;31.05;100983.80;108184;1253;62149;-64
2023/01/10 10:13:41;;;;;;;24.90;8.70;;;;;;;7.05;31.07;100989.98;107937;1254;75782;-63
2023/01/10 10:16:26;;;;;;;15.00;5.90;;;;;;;6.73;32.13;100988.30;108045;1254;72247;-64
2023/01/10 10:18:59;;;;;;;17.30;7.70;;;;;;;6.61;32.04;100987.17;108001;1254;73613;-66
2023/01/10 10:21:54;;;;;;;25.90;8.70;;;;;;;6.75;31.87;100981.83;107986;1254;62295;-64
2023/01/10 10:24:46;;;;;;;19.40;8.00;;;;;;;6.57;32.68;100981.63;108010;1254;61179;-64
2023/01/10 10:27:23;;;;;;;28.40;9.20;;;;;;;6.46;32.40;100975.41;108016;1254;72582;-65
2023/01/10 10:30:25;;;;;;;19.20;7.60;;;;;;;6.60;32.50;100980.02;108008;1254;71591;-65
2023/01/10 10:33:31;;;;;;;18.50;8.10;;;;;;;6.38;32.31;100978.23;107882;1254;73515;-65
2023/01/10 10:36:02;;;;;;;35.00;8.70;;;;;;;6.18;32.75;100970.52;107822;1254;60538;-66
2023/01/10 10:38:32;;;;;;;20.40;6.90;;;;;;;5.81;33.30;100975.55;107968;1254;62428;-64
2023/01/10 10:40:59;;;;;;;24.90;8.60;;;;;;;5.46;33.87;100970.95;107997;1254;76017;-65
2023/01/10 10:43:30;;;;;;;21.00;7.10;;;;;;;5.81;33.92;100967.73;107739;1254;72729;-67
2023/01/10 10:46:00;;;;;;;22.70;8.60;;;;;;;5.79;34.01;100973.98;108019;1254;74151;-63
2023/01/10 10:48:33;;;;;;;22.70;9.40;;;;;;;5.69;34.20;100969.14;107982;1254;62820;-66
2023/01/10 10:51:21;;;;;;;23.30;8.10;;;;;;;5.79;33.82;100968.95;107885;1254;62287;-63
2023/01/10 10:53:48;;;;;;;23.70;8.40;;;;;;;5.78;33.70;100964.42;107944;1254;75096;-62
2023/01/10 10:56:17;;;;;;;33.30;8.60;;;;;;;5.56;33.95;100962.40;108081;1254;72010;-64
2023/01/10 10:58:45;;;;;;;23.90;8.40;;;;;;;5.36;34.02;100969.77;107832;1254;72297;-64
2023/01/10 11:01:13;;;;;;;16.40;6.90;;;;;;;5.66;33.74;100967.23;107971;1254;62481;-63
2023/01/10 11:03:53;;;;;;;21.90;7.70;;;;;;;6.03;33.63;100954.56;107898;1254;60360;-64
2023/01/10 11:06:20;;;;;;;;;;;;;;;6.26;33.57;100950.77;107841;1254;74156;-64
2023/01/10 11:08:48;;;;;;;21.30;6.90;;;;;;;6.43;33.31;100960.61;107732;1254;69149;-63
2023/01/10 11:11:22;;;;;;;17.60;6.40;;;;;;;6.35;32.99;100959.77;107867;1254;75212;-64
2023/01/10 11:13:54;;;;;;;35.70;10.40;;;;;;;6.87;32.48;100951.54;107805;1254;61325;-63
2023/01/10 11:16:28;;;;;;;29.80;9.50;;;;;;;7.20;31.77;100967.13;108030;1253;62017;-66
2023/01/10 11:19:17;;;;;;;27.60;7.80;;;;;;;7.72;32.03;100964.10;108100;1254;74852;-65
2023/01/10 11:21:48;;;;;;;18.00;7.30;;;;;;;7.98;30.63;100967.31;108060;1254;71004;-63
2023/01/10 11:24:33;;;;;;;26.60;8.30;;;;;;;8.10;31.00;100969.05;108053;1254;74763;-63
2023/01/10 11:27:03;;;;;;;20.40;7.70;;;;;;;8.21;30.09;100969.77;108055;1254;62172;-64
2023/01/10 11:29:41;;;;;;;24.20;7.90;;;;;;;7.94;30.56;100970.66;108073;1253;61123;-66
2023/01/10 11:32:13;;;;;;;29.00;8.20;;;;;;;7.96;30.39;100976.25;108116;1254;72702;-64
2023/01/10 11:34:57;;;;;;;23.70;7.20;;;;;;;7.87;30.72;100982.48;108119;1254;72240;-63
2023/01/10 11:37:32;;;;;;;20.40;7.20;;;;;;;8.68;29.57;100981.37;108178;1253;74998;-63